x

Buzzards Bay, Ma (buzm3) Weather Station

4:00pm - Fri 6th May 2016 All times are EDT. -4 hours from GMT.

  • Wind
    18mph, 21mph gusts
  • Air Temp 50°f
  • Sea Pressure 1010.5mb
  • Buzzards Bay, Ma
  • Buzzards Bay, Ma

More Historic Weather Station data

Upgrade to MSW Pro to gain access to the past 30 days of data for over 8000 Wavebouys and Weather Stations around the globe.

Join Pro

Comparision Forecast

View Surf forecast
   
Fri 05/06 4:00pm 18 21 mph 1010.5mb 50f
3:00pm 22 24 mph 1010.2mb 49f
2:00pm 21 23 mph 1010.4mb 50f
1:00pm 23 26 mph 1010mb 49f
12:00pm 25 28 mph 1009.8mb 48f
11:00am 26 29 mph 1009.6mb 48f
10:00am 28 29 mph 1008.8mb 48f
9:00am 24 26 mph 1008.3mb 47f
8:00am 20 22 mph 1008.1mb 47f
7:00am 18 21 mph 1007.4mb 47f
6:00am 20 22 mph 1006.3mb 46f
5:00am 20 23 mph 1005.5mb 46f
4:00am 21 22 mph 1004.8mb 46f
3:00am 21 23 mph 1004.2mb 46f
2:00am 31 33 mph 1003mb 46f
1:00am 28 31 mph 1003.4mb 46f
12:00am 32 36 mph 1002.8mb 45f
Thu 05/05 11:00pm 30 31 mph 1003.7mb 45f
10:00pm 26 29 mph 1004.1mb 46f
9:00pm 36 41 mph 1002.6mb 45f
8:00pm 37 40 mph 1001.7mb 45f
7:00pm 34 40 mph 1002.6mb 45f
6:00pm 41 45 mph 1002.2mb 45f
5:00pm 40 46 mph 1002.6mb 45f
4:00pm 34 39 mph 1003.4mb 45f
3:00pm 38 43 mph 1003.1mb 45f
2:00pm 36 39 mph 1003.6mb 44f
1:00pm 34 41 mph 1004.4mb 45f
12:00pm 38 41 mph 1004.1mb 46f
11:00am 34 40 mph 1005.2mb 46f
10:00am 30 33 mph 1005.2mb 46f
9:00am 33 37 mph 1004.6mb 46f
8:00am 31 37 mph 1005.2mb 46f
7:00am 33 37 mph 1004.4mb 46f
6:00am 29 33 mph 1004.2mb 45f
5:00am 28 31 mph 1004.6mb 45f
4:00am 25 29 mph 1004.8mb 45f
3:00am 24 28 mph 1005mb 46f
2:00am 28 30 mph 1005.5mb 45f
1:00am 25 29 mph 1006.1mb 45f
12:00am 31 33 mph 1006.1mb 45f
Wed 05/04 11:00pm 32 36 mph 1005.7mb 46f
10:00pm 26 30 mph 1007.1mb 45f
9:00pm 18 21 mph 1008.6mb 45f
8:00pm 32 34 mph 1005.8mb 44f
7:00pm 33 37 mph 1006.5mb 45f
6:00pm 28 33 mph 1006.8mb 44f
5:00pm 29 32 mph 1007.7mb 44f
4:00pm 28 30 mph 1007.8mb 44f
3:00pm 26 30 mph 1008mb 46f
2:00pm 26 29 mph 1008.7mb 47f
1:00pm 20 21 mph 1010.1mb 48f
12:00pm 20 23 mph 1010.9mb 47f
11:00am 25 28 mph 1011.1mb 47f
10:00am 23 26 mph 1010.9mb 47f
9:00am 20 21 mph 1010.6mb 47f
8:00am 16 17 mph 1011.2mb 46f
7:00am 20 22 mph 1010.7mb 47f
6:00am 17 20 mph 1010.5mb 46f
5:00am 17 18 mph 1010.6mb 46f
4:00am 16 17 mph 1010.6mb 46f
3:00am 11 13 mph 1010.6mb 46f
2:00am 11 13 mph 1010.6mb 46f
Tue 05/03 8:00pm 16 17 mph 1011.1mb 47f
7:00pm 17 18 mph 1010.9mb 47f
6:00pm 18 21 mph 1010.2mb 47f
5:00pm 18 21 mph 1010.1mb 47f
4:00pm 16 17 mph 1010.4mb 47f
3:00pm 15 16 mph 1011.1mb 47f
2:00pm 16
mph
1011.4mb 47f
1:00pm 17
mph
1011.4mb 47f
12:00pm 16 17 mph 1012mb 47f
11:00am 15 16 mph 1012.5mb 46f
10:00am 11
mph
1013.3mb 46f
9:00am 16 17 mph 1013.2mb 46f
8:00am 17 18 mph 1012.7mb 46f
7:00am 13 14 mph 1013.1mb 47f
6:00am 7 8 mph 1013.8mb 47f
5:00am 8
mph
1014mb 47f
4:00am 6
mph
1014.6mb 47f
3:00am 9 10 mph 1012.9mb 47f
2:00am 9 10 mph 1013.7mb 47f
1:00am 9
mph
1014mb 48f
12:00am 9
mph
1014.4mb 51f
Mon 05/02 11:00pm 14
mph
1013.8mb 49f
10:00pm 14 15 mph 1013.7mb 50f